createdAt,value
2024-03-10T00:02:29.070Z,1.40
2024-03-10T00:06:30.896Z,1.25
2024-03-10T00:10:38.326Z,1.33
2024-03-10T00:14:40.655Z,1.20
2024-03-10T00:18:42.989Z,1.20
2024-03-10T00:22:47.207Z,1.38
2024-03-10T00:26:51.699Z,1.30
2024-03-10T00:30:53.554Z,1.30
2024-03-10T00:34:55.443Z,1.35
2024-03-10T00:38:57.169Z,1.50
2024-03-10T00:42:58.860Z,1.00
2024-03-10T00:47:00.692Z,1.02
2024-03-10T00:51:02.526Z,1.08
2024-03-10T00:55:06.181Z,1.33
2024-03-10T00:59:07.930Z,0.90
2024-03-10T01:03:12.450Z,0.90
2024-03-10T01:07:14.207Z,0.85
2024-03-10T01:11:16.291Z,0.93
2024-03-10T01:15:18.266Z,1.40
2024-03-10T01:19:19.966Z,1.48
2024-03-10T01:23:21.715Z,1.20
2024-03-10T01:27:24.706Z,1.00
2024-03-10T01:31:27.223Z,1.52
2024-03-10T01:35:28.914Z,1.70
2024-03-10T01:39:30.737Z,1.67
2024-03-10T01:43:32.430Z,1.40
2024-03-10T01:47:34.282Z,1.20
2024-03-10T01:51:38.021Z,1.48
2024-03-10T01:55:40.009Z,1.80
2024-03-10T01:59:41.872Z,1.40
2024-03-10T02:03:44.842Z,1.20
2024-03-10T02:07:46.561Z,1.20
2024-03-10T02:11:48.548Z,1.40
2024-03-10T02:16:04.182Z,1.17
2024-03-10T02:20:15.522Z,1.63
2024-03-10T02:24:20.500Z,1.30
2024-03-10T02:29:13.005Z,1.35
2024-03-10T02:33:37.919Z,1.50
2024-03-10T02:37:58.080Z,1.30
2024-03-10T02:42:18.466Z,1.55
2024-03-10T02:46:38.747Z,1.50
2024-03-10T02:50:40.630Z,1.50
2024-03-10T02:54:42.391Z,1.40
2024-03-10T02:58:44.552Z,1.33
2024-03-10T03:02:46.401Z,1.35
2024-03-10T03:06:48.214Z,1.58
2024-03-10T03:10:49.874Z,1.50
2024-03-10T03:14:51.636Z,1.60
2024-03-10T03:18:53.615Z,1.20
2024-03-10T03:22:55.586Z,1.27
2024-03-10T03:26:57.508Z,1.20
2024-03-10T03:30:59.271Z,1.30
2024-03-10T03:35:01.096Z,1.30
2024-03-10T03:39:02.995Z,1.20
2024-03-10T03:43:04.739Z,1.17
2024-03-10T03:47:07.056Z,1.10
2024-03-10T03:51:08.784Z,1.20
2024-03-10T03:55:13.211Z,1.08
2024-03-10T03:59:14.881Z,1.20
2024-03-10T04:03:16.590Z,1.38
2024-03-10T04:07:18.354Z,1.27
2024-03-10T04:11:20.242Z,1.10
2024-03-10T04:15:23.071Z,1.10
2024-03-10T04:19:25.686Z,1.48
2024-03-10T04:23:27.984Z,1.10
2024-03-10T04:27:31.880Z,1.20
2024-03-10T04:31:33.982Z,0.88
2024-03-10T04:35:35.895Z,1.27
2024-03-10T04:39:38.123Z,1.30
2024-03-10T04:43:40.383Z,1.40
2024-03-10T04:47:42.700Z,1.25
2024-03-10T04:51:44.894Z,1.25
2024-03-10T04:55:46.906Z,1.30
2024-03-10T04:59:49.626Z,1.40
2024-03-10T05:03:51.596Z,1.30
2024-03-10T05:07:53.399Z,1.10
2024-03-10T05:11:55.331Z,1.10
2024-03-10T05:15:57.136Z,0.90
2024-03-10T05:19:59.788Z,0.80
2024-03-10T05:24:01.737Z,1.10
2024-03-10T05:28:03.632Z,1.10
2024-03-10T05:32:06.168Z,1.20
2024-03-10T05:36:08.153Z,1.10
2024-03-10T05:40:10.420Z,1.38
2024-03-10T05:44:15.668Z,1.00
2024-03-10T05:48:19.939Z,1.27
2024-03-10T05:52:22.194Z,1.20
2024-03-10T05:56:24.328Z,1.08
2024-03-10T06:00:26.197Z,1.40
2024-03-10T06:04:28.228Z,1.15
2024-03-10T06:08:30.545Z,1.38
2024-03-10T06:12:32.981Z,1.33
2024-03-10T06:16:35.248Z,1.10
2024-03-10T06:20:56.208Z,1.55
2024-03-10T06:25:16.905Z,1.10
2024-03-10T06:29:19.497Z,0.90
2024-03-10T06:33:21.790Z,1.30
2024-03-10T06:37:23.938Z,1.10
2024-03-10T06:41:26.235Z,1.00
2024-03-10T06:45:28.091Z,0.93
2024-03-10T06:49:29.788Z,1.10
2024-03-10T06:53:32.364Z,1.10
2024-03-10T06:57:34.499Z,2.13
2024-03-10T07:01:45.556Z,1.90
2024-03-10T07:05:47.489Z,1.52
2024-03-10T07:09:49.187Z,1.75
2024-03-10T07:13:51.771Z,1.10
2024-03-10T07:17:53.705Z,1.30
2024-03-10T07:21:56.072Z,1.45
2024-03-10T07:25:57.848Z,1.60
2024-03-10T07:29:59.636Z,1.45
2024-03-10T07:34:01.385Z,1.23
2024-03-10T07:38:03.164Z,1.65
2024-03-10T07:42:05.368Z,1.60
2024-03-10T07:46:08.482Z,1.50
2024-03-10T07:50:11.297Z,1.20
2024-03-10T07:54:13.168Z,1.35
2024-03-10T07:58:14.964Z,1.00
2024-03-10T08:02:18.802Z,1.17
2024-03-10T08:06:23.081Z,1.30
2024-03-10T08:10:24.977Z,1.30
2024-03-10T08:14:26.642Z,1.58
2024-03-10T08:18:28.475Z,1.17
2024-03-10T08:22:30.501Z,1.48
2024-03-10T08:26:32.453Z,1.35
2024-03-10T08:30:34.465Z,1.55
2024-03-10T08:34:36.193Z,1.38
2024-03-10T08:38:38.330Z,1.20
2024-03-10T08:42:43.552Z,1.33
2024-03-10T08:46:47.924Z,1.90
2024-03-10T08:50:51.630Z,1.38
2024-03-10T08:54:53.360Z,1.70
2024-03-10T08:58:55.323Z,1.40
2024-03-10T09:02:57.215Z,1.63
2024-03-10T09:06:58.924Z,1.42
2024-03-10T09:11:04.590Z,1.42
2024-03-10T09:15:07.031Z,1.60
2024-03-10T09:19:09.016Z,1.17
2024-03-10T09:23:10.995Z,1.40
2024-03-10T09:27:14.144Z,1.40
2024-03-10T09:31:15.950Z,1.10
2024-03-10T09:35:35.833Z,1.50
2024-03-10T09:39:38.181Z,1.20
2024-03-10T09:43:41.481Z,1.10
2024-03-10T09:47:49.555Z,1.08
2024-03-10T09:51:51.414Z,1.27
2024-03-10T09:55:54.088Z,1.30
2024-03-10T09:59:57.196Z,1.05
2024-03-10T10:04:02.793Z,1.02
2024-03-10T10:08:09.229Z,1.13
2024-03-10T10:12:14.260Z,1.13
2024-03-10T10:16:17.820Z,1.20
2024-03-10T10:20:24.691Z,1.20
2024-03-10T10:28:28.415Z,0.80
2024-03-10T10:32:30.211Z,1.00
2024-03-10T10:36:36.476Z,1.27
2024-03-10T10:40:52.808Z,0.97
2024-03-10T10:44:55.043Z,1.30
2024-03-10T10:48:57.381Z,1.30
2024-03-10T10:53:00.456Z,1.23
2024-03-10T10:57:07.330Z,1.40
2024-03-10T11:01:09.421Z,0.98
2024-03-10T11:05:11.287Z,0.90
2024-03-10T11:09:16.396Z,0.70
2024-03-10T11:13:21.269Z,0.88
2024-03-10T11:17:24.940Z,0.80
2024-03-10T11:21:27.545Z,0.73
2024-03-10T11:25:34.970Z,0.70
2024-03-10T11:29:38.428Z,0.60
2024-03-10T11:33:41.743Z,0.70
2024-03-10T11:37:44.259Z,0.70
2024-03-10T11:41:47.065Z,0.60
2024-03-10T11:45:49.137Z,0.70
2024-03-10T11:49:51.972Z,0.50
2024-03-10T11:53:53.890Z,0.60
2024-03-10T11:57:57.214Z,0.50
2024-03-10T12:02:00.964Z,0.60
2024-03-10T12:06:03.523Z,0.60
2024-03-10T12:10:09.943Z,0.57
2024-03-10T12:14:12.700Z,0.68
2024-03-10T12:18:17.894Z,0.60
2024-03-10T12:22:20.111Z,0.50
2024-03-10T12:26:23.772Z,0.60
2024-03-10T12:30:27.897Z,0.70
2024-03-10T12:34:29.540Z,0.93
2024-03-10T12:38:31.435Z,0.50
2024-03-10T12:42:36.193Z,0.70
2024-03-10T12:46:40.875Z,0.77
2024-03-10T12:50:42.804Z,0.63
2024-03-10T12:54:45.042Z,0.82
2024-03-10T12:58:47.036Z,0.80
2024-03-10T13:02:48.903Z,0.70
2024-03-10T13:06:50.816Z,0.60
2024-03-10T13:10:52.564Z,0.60
2024-03-10T13:14:54.356Z,0.82
2024-03-10T13:18:57.625Z,0.80
2024-03-10T13:22:59.338Z,0.80
2024-03-10T13:27:01.281Z,0.63
2024-03-10T13:31:03.949Z,0.52
2024-03-10T13:35:05.890Z,0.65
2024-03-10T13:39:11.249Z,0.70
2024-03-10T13:43:14.215Z,1.30
2024-03-10T13:47:15.997Z,0.90
2024-03-10T13:51:17.649Z,1.00
2024-03-10T13:55:22.128Z,1.00
2024-03-10T13:59:24.968Z,0.85
2024-03-10T14:03:27.341Z,0.77
2024-03-10T14:07:29.258Z,1.00
2024-03-10T14:11:32.306Z,2.28
2024-03-10T14:15:40.920Z,2.15
2024-03-10T14:19:43.164Z,0.90
2024-03-10T14:23:44.926Z,0.70
2024-03-10T14:27:49.354Z,0.70
2024-03-10T14:31:51.262Z,0.70
2024-03-10T14:35:53.740Z,0.70
2024-03-10T14:39:55.442Z,0.60
2024-03-10T14:43:57.844Z,0.68
2024-03-10T14:47:59.968Z,0.55
2024-03-10T14:52:01.736Z,0.40
2024-03-10T14:56:03.839Z,0.50
2024-03-10T15:00:05.786Z,0.50
2024-03-10T15:04:07.565Z,0.50
2024-03-10T15:08:10.356Z,0.40
2024-03-10T15:12:13.192Z,0.50
2024-03-10T15:16:15.724Z,0.50
2024-03-10T15:20:20.183Z,0.40
2024-03-10T15:24:22.901Z,0.65
2024-03-10T15:28:24.796Z,0.47
2024-03-10T15:32:26.562Z,0.50
2024-03-10T15:36:29.015Z,0.47
2024-03-10T15:40:30.729Z,0.60
2024-03-10T15:44:32.860Z,0.50
2024-03-10T15:48:34.662Z,0.50
2024-03-10T15:52:36.739Z,0.40
2024-03-10T15:56:38.869Z,0.43
2024-03-10T16:00:40.570Z,0.40
2024-03-10T16:04:43.735Z,0.43
2024-03-10T16:08:45.585Z,0.40
2024-03-10T16:12:47.499Z,0.60
2024-03-10T16:16:49.874Z,0.60
2024-03-10T16:20:52.341Z,0.50
2024-03-10T16:24:53.987Z,0.52
2024-03-10T16:28:55.980Z,0.50
2024-03-10T16:32:58.379Z,0.50
2024-03-10T16:37:00.169Z,0.60
2024-03-10T16:41:01.931Z,0.70
2024-03-10T16:45:05.260Z,0.60
2024-03-10T16:49:07.378Z,0.73
2024-03-10T16:53:10.455Z,0.60
2024-03-10T16:57:13.247Z,0.77
2024-03-10T17:01:15.107Z,0.65
2024-03-10T17:05:17.315Z,0.65
2024-03-10T17:09:20.494Z,0.60
2024-03-10T17:13:22.274Z,0.60
2024-03-10T17:17:24.424Z,0.50
2024-03-10T17:21:26.811Z,0.60
2024-03-10T17:25:29.446Z,0.60
2024-03-10T17:29:31.902Z,0.50
2024-03-10T17:33:35.653Z,0.60
2024-03-10T17:37:37.485Z,0.40
2024-03-10T17:41:39.883Z,0.50
2024-03-10T17:45:41.772Z,0.70
2024-03-10T17:49:44.513Z,0.70
2024-03-10T17:53:46.614Z,0.80
2024-03-10T17:57:48.643Z,0.88
2024-03-10T18:01:50.266Z,0.77
2024-03-10T18:05:51.984Z,0.60
2024-03-10T18:09:54.180Z,0.70
2024-03-10T18:13:56.782Z,0.68
2024-03-10T18:18:00.621Z,1.05
2024-03-10T18:22:02.652Z,0.80
2024-03-10T18:26:05.760Z,0.60
2024-03-10T18:30:11.005Z,0.70
2024-03-10T18:34:12.976Z,0.70
2024-03-10T18:38:16.972Z,0.70
2024-03-10T18:42:19.054Z,0.60
2024-03-10T18:46:22.101Z,0.73
2024-03-10T18:50:24.893Z,0.60
2024-03-10T18:54:27.038Z,0.60
2024-03-10T18:58:29.280Z,0.50
2024-03-10T19:02:32.119Z,0.70
2024-03-10T19:06:34.669Z,0.70
2024-03-10T19:10:37.152Z,0.50
2024-03-10T19:14:39.176Z,0.80
2024-03-10T19:18:41.010Z,1.02
2024-03-10T19:22:43.188Z,0.80
2024-03-10T19:26:45.636Z,0.70
2024-03-10T19:30:47.636Z,0.60
2024-03-10T19:34:49.563Z,0.40
2024-03-10T19:38:51.377Z,0.47
2024-03-10T19:42:55.849Z,0.50
2024-03-10T19:46:57.880Z,0.50
2024-03-10T19:51:00.207Z,0.60
2024-03-10T19:55:04.840Z,0.63
2024-03-10T19:59:07.208Z,0.50
2024-03-10T20:03:08.912Z,0.60
2024-03-10T20:07:10.694Z,0.50
2024-03-10T20:11:12.630Z,0.70
2024-03-10T20:15:16.081Z,0.55
2024-03-10T20:19:17.884Z,0.60
2024-03-10T20:23:20.153Z,0.50
2024-03-10T20:27:22.299Z,0.90
2024-03-10T20:31:25.685Z,0.70
2024-03-10T20:35:28.022Z,0.50
2024-03-10T20:39:30.332Z,0.70
2024-03-10T20:43:35.321Z,0.60
2024-03-10T20:47:38.323Z,0.60
2024-03-10T20:51:41.394Z,1.00
2024-03-10T20:55:43.185Z,0.90
2024-03-10T20:59:45.112Z,1.38
2024-03-10T21:03:46.843Z,1.33
2024-03-10T21:07:48.517Z,1.60
2024-03-10T21:11:51.141Z,1.83
2024-03-10T21:15:52.894Z,2.40
2024-03-10T21:19:54.641Z,2.00
2024-03-10T21:23:56.644Z,2.60
2024-03-10T21:27:58.492Z,2.40
2024-03-10T21:32:00.874Z,2.70
2024-03-10T21:36:03.449Z,2.60
2024-03-10T21:40:11.853Z,2.70
2024-03-10T21:44:13.672Z,2.72
2024-03-10T21:48:15.617Z,3.30
2024-03-10T21:52:17.333Z,2.90
2024-03-10T21:56:19.056Z,3.42
2024-03-10T22:00:21.632Z,2.60
2024-03-10T22:04:23.618Z,3.15
2024-03-10T22:08:26.399Z,3.08
2024-03-10T22:12:28.714Z,3.33
2024-03-10T22:16:30.588Z,3.65
2024-03-10T22:20:32.607Z,4.55
2024-03-10T22:24:34.872Z,3.47
2024-03-10T22:28:36.766Z,4.47
2024-03-10T22:32:39.473Z,3.50
2024-03-10T22:36:41.689Z,4.25
2024-03-10T22:40:43.430Z,4.07
2024-03-10T22:44:51.702Z,4.53
2024-03-10T22:48:57.347Z,4.32
2024-03-10T22:53:04.141Z,4.05
2024-03-10T23:01:12.519Z,4.40
2024-03-10T23:05:15.108Z,4.57
2024-03-10T23:09:17.047Z,4.40
2024-03-10T23:13:21.134Z,4.57
2024-03-10T23:17:23.123Z,4.40
2024-03-10T23:21:25.069Z,4.65
2024-03-10T23:25:27.392Z,4.30
2024-03-10T23:29:29.176Z,4.93
2024-03-10T23:33:31.195Z,4.43
2024-03-10T23:37:36.187Z,5.10
2024-03-10T23:41:37.955Z,4.75
2024-03-10T23:45:39.651Z,4.65
2024-03-10T23:49:41.527Z,5.47
2024-03-10T23:53:43.758Z,5.07
2024-03-10T23:57:45.518Z,4.40
